createdAt,value
2019-01-10T00:03:48.946Z,80.82
2019-01-10T00:08:51.343Z,80.72
2019-01-10T00:13:53.535Z,80.82
2019-01-10T00:18:55.711Z,80.79
2019-01-10T00:23:57.874Z,80.68
2019-01-10T00:29:00.060Z,80.61
2019-01-10T00:34:02.387Z,80.62
2019-01-10T00:39:06.352Z,80.53
2019-01-10T00:44:08.594Z,80.55
2019-01-10T00:49:11.592Z,80.40
2019-01-10T00:54:13.737Z,80.42
2019-01-10T00:59:16.646Z,80.31
2019-01-10T01:04:19.552Z,80.17
2019-01-10T01:09:22.088Z,80.06
2019-01-10T01:14:24.977Z,80.08
2019-01-10T01:19:27.696Z,79.88
2019-01-10T01:24:30.028Z,79.81
2019-01-10T01:29:33.524Z,79.76
2019-01-10T01:34:36.432Z,79.68
2019-01-10T01:39:39.080Z,79.64
2019-01-10T01:44:41.492Z,79.66
2019-01-10T01:49:44.223Z,79.57
2019-01-10T01:54:46.401Z,79.53
2019-01-10T01:59:48.879Z,79.43
2019-01-10T02:04:51.036Z,79.60
2019-01-10T02:09:53.396Z,79.71
2019-01-10T02:14:56.093Z,79.53
2019-01-10T02:19:58.640Z,79.54
2019-01-10T02:25:01.152Z,79.58
2019-01-10T02:30:06.727Z,79.59
2019-01-10T02:35:09.797Z,79.67
2019-01-10T02:40:12.829Z,79.76
2019-01-10T02:45:16.036Z,79.79
2019-01-10T02:50:21.273Z,79.58
2019-01-10T02:55:23.515Z,79.52
2019-01-10T03:00:26.403Z,79.46
2019-01-10T03:05:29.231Z,79.46
2019-01-10T03:10:31.507Z,79.18
2019-01-10T03:15:34.377Z,79.18
2019-01-10T03:20:37.035Z,79.13
2019-01-10T03:25:39.456Z,79.06
2019-01-10T03:30:41.578Z,78.93
2019-01-10T03:35:43.737Z,78.84
2019-01-10T03:40:46.007Z,78.67
2019-01-10T03:45:48.734Z,78.55
2019-01-10T03:50:51.686Z,78.26
2019-01-10T03:55:54.302Z,78.26
2019-01-10T04:00:56.482Z,78.15
2019-01-10T04:05:58.917Z,78.10
2019-01-10T04:11:01.346Z,78.03
2019-01-10T04:16:03.728Z,77.84
2019-01-10T04:21:16.697Z,77.69
2019-01-10T04:26:10.525Z,77.79
2019-01-10T04:31:12.957Z,77.65
2019-01-10T04:36:15.121Z,77.58
2019-01-10T04:41:17.717Z,77.42
2019-01-10T04:46:20.206Z,77.33
2019-01-10T04:51:22.607Z,77.32
2019-01-10T04:56:25.048Z,77.32
2019-01-10T05:01:27.740Z,77.37
2019-01-10T05:06:29.939Z,77.24
2019-01-10T05:11:32.148Z,77.49
2019-01-10T05:16:34.948Z,77.41
2019-01-10T05:21:37.568Z,77.32
2019-01-10T05:26:40.293Z,77.24
2019-01-10T05:31:42.679Z,77.13
2019-01-10T05:36:44.863Z,77.18
2019-01-10T05:41:47.039Z,77.11
2019-01-10T05:46:49.928Z,77.12
2019-01-10T05:51:52.591Z,77.08
2019-01-10T05:56:55.033Z,76.86
2019-01-10T06:01:57.449Z,76.86
2019-01-10T06:06:59.734Z,76.73
2019-01-10T06:12:02.597Z,76.54
2019-01-10T06:17:04.752Z,76.61
2019-01-10T06:22:06.963Z,76.48
2019-01-10T06:27:09.156Z,76.52
2019-01-10T06:32:12.291Z,76.22
2019-01-10T06:37:14.912Z,76.17
2019-01-10T06:42:17.316Z,76.15
2019-01-10T06:47:19.741Z,76.12
2019-01-10T06:52:21.997Z,75.97
2019-01-10T06:57:24.164Z,75.88
2019-01-10T07:02:26.711Z,75.68
2019-01-10T07:07:28.888Z,75.64
2019-01-10T07:12:31.794Z,75.70
2019-01-10T07:17:34.050Z,75.48
2019-01-10T07:22:42.956Z,75.44
2019-01-10T07:27:45.769Z,75.47
2019-01-10T07:32:48.053Z,75.32
2019-01-10T07:37:56.624Z,75.46
2019-01-10T07:42:59.615Z,75.57
2019-01-10T07:48:07.145Z,75.62
2019-01-10T07:53:09.733Z,75.76
2019-01-10T07:58:12.377Z,75.69
2019-01-10T08:03:14.612Z,75.58
2019-01-10T08:08:17.168Z,75.65
2019-01-10T08:13:19.768Z,75.62
2019-01-10T08:18:21.986Z,75.53
2019-01-10T08:23:24.711Z,75.30
2019-01-10T08:28:26.876Z,75.25
2019-01-10T08:33:29.154Z,75.16
2019-01-10T08:38:31.374Z,75.12
2019-01-10T08:43:33.652Z,74.65
2019-01-10T08:48:36.169Z,74.73
2019-01-10T08:53:38.754Z,74.53
2019-01-10T08:58:41.185Z,74.27
2019-01-10T09:03:43.376Z,74.41
2019-01-10T09:08:45.781Z,74.10
2019-01-10T09:13:47.960Z,74.19
2019-01-10T09:18:50.093Z,73.82
2019-01-10T09:23:52.223Z,73.61
2019-01-10T09:28:54.774Z,73.61
2019-01-10T09:33:57.520Z,72.99
2019-01-10T09:38:59.774Z,72.51
2019-01-10T09:44:02.168Z,71.52
2019-01-10T09:49:04.668Z,70.83
2019-01-10T09:54:07.072Z,70.76
2019-01-10T09:59:09.284Z,69.95
2019-01-10T10:04:11.518Z,69.77
2019-01-10T10:09:13.758Z,69.83
2019-01-10T10:14:16.372Z,69.87
2019-01-10T10:19:18.585Z,69.50
2019-01-10T10:24:20.774Z,69.16
2019-01-10T10:29:22.924Z,69.16
2019-01-10T10:34:25.186Z,68.67
2019-01-10T10:39:27.680Z,68.76
2019-01-10T10:44:29.803Z,68.64
2019-01-10T10:49:32.087Z,68.27
2019-01-10T10:54:35.230Z,67.84
2019-01-10T10:59:37.778Z,67.51
2019-01-10T11:04:40.439Z,67.28
2019-01-10T11:09:42.882Z,66.65
2019-01-10T11:14:48.266Z,66.42
2019-01-10T11:19:51.182Z,66.37
2019-01-10T11:24:54.114Z,66.54
2019-01-10T11:29:56.425Z,66.08
2019-01-10T11:34:58.584Z,65.51
2019-01-10T11:40:01.040Z,65.52
2019-01-10T11:45:06.240Z,65.21
2019-01-10T11:50:10.634Z,64.99
2019-01-10T11:55:13.282Z,64.42
2019-01-10T12:00:28.277Z,64.04
2019-01-10T12:05:30.771Z,63.65
2019-01-10T12:10:33.015Z,63.54
2019-01-10T12:15:37.768Z,63.16
2019-01-10T12:20:40.291Z,63.19
2019-01-10T12:25:42.556Z,63.07
2019-01-10T12:30:45.345Z,62.98
2019-01-10T12:35:47.632Z,63.19
2019-01-10T12:40:50.687Z,62.64
2019-01-10T12:45:52.968Z,62.53
2019-01-10T12:50:55.393Z,61.63
2019-01-10T12:55:58.091Z,60.58
2019-01-10T13:01:00.836Z,59.62
2019-01-10T13:06:03.314Z,59.15
2019-01-10T13:11:05.498Z,59.00
2019-01-10T13:16:07.627Z,59.28
2019-01-10T13:21:09.879Z,59.31
2019-01-10T13:26:12.272Z,59.23
2019-01-10T13:31:14.435Z,59.11
2019-01-10T13:36:16.706Z,59.12
2019-01-10T13:41:19.192Z,59.15
2019-01-10T13:46:21.435Z,59.01
2019-01-10T13:51:23.902Z,59.05
2019-01-10T13:56:26.043Z,59.15
2019-01-10T14:01:28.274Z,59.02
2019-01-10T14:06:30.972Z,59.12
2019-01-10T14:11:33.848Z,59.11
2019-01-10T14:16:36.116Z,58.87
2019-01-10T14:21:38.340Z,59.08
2019-01-10T14:26:41.132Z,59.19
2019-01-10T14:31:43.588Z,59.26
2019-01-10T14:36:46.481Z,59.06
2019-01-10T14:41:48.694Z,58.99
2019-01-10T14:46:50.905Z,58.92
2019-01-10T14:51:53.368Z,58.74
2019-01-10T14:56:58.130Z,58.09
2019-01-10T15:02:00.893Z,58.08
2019-01-10T15:07:03.415Z,58.01
2019-01-10T15:12:05.690Z,58.26
2019-01-10T15:17:13.778Z,58.18
2019-01-10T15:22:12.767Z,58.14
2019-01-10T15:27:15.302Z,58.30
2019-01-10T15:32:17.871Z,58.20
2019-01-10T15:37:20.053Z,58.41
2019-01-10T15:42:22.903Z,58.23
2019-01-10T15:47:25.155Z,58.40
2019-01-10T15:52:27.321Z,58.40
2019-01-10T15:57:29.663Z,58.67
2019-01-10T16:02:32.319Z,58.65
2019-01-10T16:07:35.088Z,58.79
2019-01-10T16:12:37.363Z,58.90
2019-01-10T16:17:39.758Z,59.05
2019-01-10T16:22:42.277Z,59.29
2019-01-10T16:27:44.784Z,59.49
2019-01-10T16:32:47.054Z,59.45
2019-01-10T16:37:49.586Z,59.64
2019-01-10T16:42:52.584Z,59.92
2019-01-10T16:47:55.275Z,60.07
2019-01-10T16:52:57.536Z,60.16
2019-01-10T16:57:59.728Z,60.44
2019-01-10T17:03:02.397Z,60.51
2019-01-10T17:08:05.335Z,60.51
2019-01-10T17:13:08.486Z,60.62
2019-01-10T17:18:10.669Z,60.79
2019-01-10T17:23:12.931Z,60.95
2019-01-10T17:28:15.252Z,61.06
2019-01-10T17:33:17.537Z,61.20
2019-01-10T17:38:20.108Z,61.45
2019-01-10T17:43:22.673Z,61.65
2019-01-10T17:48:25.570Z,61.90
2019-01-10T17:53:27.837Z,62.23
2019-01-10T17:58:30.419Z,62.42
2019-01-10T18:03:32.600Z,62.58
2019-01-10T18:08:35.398Z,62.76
2019-01-10T18:13:38.070Z,62.90
2019-01-10T18:18:40.718Z,63.53
2019-01-10T18:23:43.611Z,63.75
2019-01-10T18:28:46.099Z,63.83
2019-01-10T18:33:48.469Z,63.86
2019-01-10T18:38:51.220Z,64.06
2019-01-10T18:43:53.579Z,64.14
2019-01-10T18:48:55.961Z,64.12
2019-01-10T18:53:58.611Z,64.17
2019-01-10T18:59:00.749Z,64.20
2019-01-10T19:04:02.834Z,63.93
2019-01-10T19:09:07.017Z,64.03
2019-01-10T19:14:09.486Z,64.10
2019-01-10T19:19:12.255Z,64.30
2019-01-10T19:24:14.419Z,64.24
2019-01-10T19:29:17.080Z,64.59
2019-01-10T19:34:21.807Z,64.64
2019-01-10T19:39:24.581Z,64.61
2019-01-10T19:44:26.861Z,64.52
2019-01-10T19:49:29.078Z,64.41
2019-01-10T19:54:31.514Z,64.22
2019-01-10T19:59:34.032Z,64.46
2019-01-10T20:04:36.755Z,64.74
2019-01-10T20:09:39.361Z,64.58
2019-01-10T20:14:41.840Z,64.54
2019-01-10T20:19:44.190Z,64.64
2019-01-10T20:24:47.111Z,64.41
2019-01-10T20:29:49.690Z,64.65
2019-01-10T20:34:52.000Z,64.91
2019-01-10T20:39:54.155Z,65.09
2019-01-10T20:44:56.648Z,65.26
2019-01-10T20:49:59.075Z,65.53
2019-01-10T20:55:01.366Z,65.69
2019-01-10T21:00:10.318Z,65.79
2019-01-10T21:05:13.000Z,65.51
2019-01-10T21:10:16.177Z,65.63
2019-01-10T21:15:22.155Z,65.87
2019-01-10T21:20:24.511Z,66.35
2019-01-10T21:25:27.780Z,66.09
2019-01-10T21:30:30.453Z,66.57
2019-01-10T21:35:32.610Z,66.60
2019-01-10T21:40:34.975Z,66.68
2019-01-10T21:45:38.743Z,66.83
2019-01-10T21:50:41.369Z,66.91
2019-01-10T21:55:44.042Z,66.92
2019-01-10T22:00:46.244Z,67.12
2019-01-10T22:05:48.826Z,67.11
2019-01-10T22:10:51.808Z,67.21
2019-01-10T22:15:53.924Z,67.24
2019-01-10T22:20:56.466Z,67.69
2019-01-10T22:25:59.386Z,67.38
2019-01-10T22:31:02.132Z,67.64
2019-01-10T22:36:04.537Z,67.34
2019-01-10T22:41:07.143Z,67.51
2019-01-10T22:46:09.314Z,67.31
2019-01-10T22:51:11.661Z,67.76
2019-01-10T22:56:13.832Z,67.66
2019-01-10T23:01:45.426Z,67.53
2019-01-10T23:06:47.751Z,67.13
2019-01-10T23:11:50.662Z,67.96
2019-01-10T23:16:53.180Z,67.82
2019-01-10T23:22:06.084Z,67.65
2019-01-10T23:27:08.555Z,68.16
2019-01-10T23:32:13.428Z,68.35
2019-01-10T23:37:21.522Z,68.42
2019-01-10T23:42:24.551Z,68.23
2019-01-10T23:47:26.686Z,68.88
2019-01-10T23:52:29.339Z,69.09
2019-01-10T23:57:32.864Z,68.44
